createdAt,value
2022-11-23T00:02:20.307Z,2.08
2022-11-23T00:07:22.619Z,2.00
2022-11-23T00:12:24.748Z,2.75
2022-11-23T00:17:26.875Z,2.55
2022-11-23T00:22:28.948Z,2.55
2022-11-23T00:27:31.067Z,2.30
2022-11-23T00:32:33.292Z,3.05
2022-11-23T00:37:35.387Z,2.17
2022-11-23T00:42:38.355Z,3.17
2022-11-23T00:47:40.810Z,3.70
2022-11-23T00:52:43.041Z,3.33
2022-11-23T00:57:45.073Z,2.75
2022-11-23T01:02:47.172Z,3.97
2022-11-23T01:07:49.306Z,4.30
2022-11-23T01:12:51.621Z,3.47
2022-11-23T01:17:53.839Z,4.07
2022-11-23T01:22:55.925Z,3.38
2022-11-23T01:27:57.918Z,3.13
2022-11-23T01:33:01.543Z,2.83
2022-11-23T01:38:03.873Z,2.83
2022-11-23T01:43:13.880Z,2.20
2022-11-23T01:48:20.988Z,1.98
2022-11-23T01:53:23.687Z,1.45
2022-11-23T01:58:28.432Z,1.48
2022-11-23T02:03:33.058Z,1.80
2022-11-23T02:08:37.912Z,1.73
2022-11-23T02:13:41.093Z,1.50
2022-11-23T02:18:45.670Z,1.52
2022-11-23T02:23:50.874Z,2.03
2022-11-23T02:28:56.072Z,1.70
2022-11-23T02:33:58.636Z,3.50
2022-11-23T02:39:05.630Z,2.58
2022-11-23T02:44:18.102Z,1.63
2022-11-23T02:49:20.436Z,1.98
2022-11-23T02:54:22.448Z,2.42
2022-11-23T02:59:24.517Z,1.70
2022-11-23T03:04:28.324Z,1.85
2022-11-23T03:09:30.911Z,6.50
2022-11-23T03:14:33.450Z,2.17
2022-11-23T03:19:35.973Z,1.77
2022-11-23T03:24:38.280Z,2.35
2022-11-23T03:29:41.931Z,2.42
2022-11-23T03:34:50.348Z,2.70
2022-11-23T03:39:55.006Z,3.05
2022-11-23T03:45:23.356Z,4.80
2022-11-23T03:50:25.460Z,6.07
2022-11-23T03:55:27.780Z,27.48
2022-11-23T04:00:31.208Z,6.43
2022-11-23T04:05:34.014Z,5.50
2022-11-23T04:10:59.299Z,7.35
2022-11-23T04:16:19.316Z,5.55
2022-11-23T04:21:21.602Z,24.48
2022-11-23T04:26:23.805Z,9.55
2022-11-23T04:31:25.970Z,6.40
2022-11-23T04:36:43.212Z,4.78
2022-11-23T04:41:46.235Z,5.20
2022-11-23T04:46:50.433Z,6.10
2022-11-23T04:51:54.881Z,6.07
2022-11-23T04:57:03.441Z,4.82
2022-11-23T05:02:05.847Z,6.65
2022-11-23T05:07:19.017Z,21.90
2022-11-23T05:12:27.839Z,10.50
2022-11-23T05:17:30.343Z,8.35
2022-11-23T05:22:32.459Z,6.80
2022-11-23T05:27:35.381Z,9.23
2022-11-23T05:32:37.721Z,5.57
2022-11-23T05:37:41.862Z,9.82
2022-11-23T05:42:46.729Z,11.43
2022-11-23T05:47:57.316Z,10.23
2022-11-23T05:53:28.774Z,9.05
2022-11-23T05:58:38.230Z,9.98
2022-11-23T06:03:41.324Z,10.27
2022-11-23T06:08:49.003Z,17.80
2022-11-23T06:13:52.917Z,12.65
2022-11-23T06:18:55.246Z,9.55
2022-11-23T06:23:57.327Z,9.43
2022-11-23T06:29:00.938Z,7.00
2022-11-23T06:34:04.366Z,51.60
2022-11-23T06:39:08.871Z,40.50
2022-11-23T06:44:10.936Z,21.38
2022-11-23T06:49:17.447Z,10.73
2022-11-23T06:54:27.330Z,7.95
2022-11-23T06:59:31.644Z,9.85
2022-11-23T07:04:34.232Z,4.63
2022-11-23T07:09:39.528Z,5.30
2022-11-23T07:14:53.680Z,5.78
2022-11-23T07:19:56.039Z,4.88
2022-11-23T07:24:58.300Z,4.72
2022-11-23T07:30:00.480Z,5.55
2022-11-23T07:35:02.588Z,5.30
2022-11-23T07:40:07.820Z,5.85
2022-11-23T07:45:12.643Z,6.20
2022-11-23T07:50:19.456Z,6.38
2022-11-23T07:55:21.815Z,6.00
2022-11-23T08:00:26.041Z,5.50
2022-11-23T08:05:28.508Z,6.28
2022-11-23T08:10:32.161Z,5.70
2022-11-23T08:15:35.915Z,14.40
2022-11-23T08:20:38.071Z,7.43
2022-11-23T08:25:40.188Z,6.22
2022-11-23T08:30:42.563Z,7.53
2022-11-23T08:35:44.596Z,7.13
2022-11-23T08:40:46.755Z,5.50
2022-11-23T08:45:49.106Z,6.15
2022-11-23T08:50:52.182Z,9.00
2022-11-23T08:55:54.252Z,11.77
2022-11-23T09:00:56.522Z,10.57
2022-11-23T09:06:00.891Z,10.18
2022-11-23T09:11:05.668Z,4.30
2022-11-23T09:16:08.698Z,4.70
2022-11-23T09:21:17.744Z,6.03
2022-11-23T09:26:20.040Z,5.07
2022-11-23T09:31:24.152Z,6.35
2022-11-23T09:36:26.388Z,7.45
2022-11-23T09:42:03.833Z,7.07
2022-11-23T09:47:22.842Z,7.35
2022-11-23T09:52:26.085Z,5.35
2022-11-23T09:57:32.891Z,4.70
2022-11-23T10:02:40.703Z,8.63
2022-11-23T10:08:19.387Z,6.80
2022-11-23T10:14:00.125Z,4.35
2022-11-23T10:19:14.387Z,4.30
2022-11-23T10:24:20.388Z,4.25
2022-11-23T10:29:38.362Z,4.00
2022-11-23T10:35:00.665Z,3.80
2022-11-23T10:45:06.153Z,4.25
2022-11-23T10:50:29.977Z,4.85
2022-11-23T10:55:58.339Z,7.47
2022-11-23T11:01:06.113Z,4.47
2022-11-23T11:06:10.170Z,4.85
2022-11-23T11:11:27.120Z,4.60
2022-11-23T11:16:32.507Z,4.18
2022-11-23T11:21:41.165Z,4.45
2022-11-23T11:27:02.825Z,4.80
2022-11-23T11:32:12.495Z,5.05
2022-11-23T11:37:32.414Z,3.70
2022-11-23T11:42:41.039Z,3.63
2022-11-23T11:48:10.732Z,3.88
2022-11-23T11:53:18.235Z,3.17
2022-11-23T11:58:24.216Z,3.25
2022-11-23T12:03:44.277Z,3.20
2022-11-23T12:09:14.487Z,4.60
2022-11-23T12:14:17.467Z,6.75
2022-11-23T12:19:25.466Z,5.70
2022-11-23T12:24:42.559Z,4.28
2022-11-23T12:30:03.412Z,3.83
2022-11-23T12:35:30.288Z,7.07
2022-11-23T12:40:49.200Z,6.05
2022-11-23T12:45:51.586Z,6.00
2022-11-23T12:51:32.332Z,3.78
2022-11-23T12:56:51.248Z,3.75
2022-11-23T13:02:00.771Z,3.60
2022-11-23T13:07:42.291Z,4.20
2022-11-23T13:13:16.362Z,7.07
2022-11-23T13:18:18.570Z,4.35
2022-11-23T13:23:23.712Z,8.82
2022-11-23T13:28:31.074Z,8.45
2022-11-23T13:33:39.360Z,5.60
2022-11-23T13:38:44.971Z,12.13
2022-11-23T13:43:47.411Z,7.47
2022-11-23T13:48:57.150Z,34.80
2022-11-23T13:54:05.718Z,24.97
2022-11-23T13:59:25.572Z,57.35
2022-11-23T14:04:32.462Z,66.05
2022-11-23T14:09:43.132Z,28.50
2022-11-23T14:14:51.432Z,8.87
2022-11-23T14:20:30.649Z,15.70
2022-11-23T14:26:09.761Z,11.30
2022-11-23T14:31:28.051Z,11.50
2022-11-23T14:36:42.168Z,11.57
2022-11-23T14:41:50.380Z,9.80
2022-11-23T14:47:07.616Z,10.00
2022-11-23T14:52:28.093Z,12.98
2022-11-23T14:57:46.976Z,8.37
2022-11-23T15:02:49.761Z,8.32
2022-11-23T15:08:00.632Z,14.75
2022-11-23T15:13:03.137Z,13.73
2022-11-23T15:18:05.416Z,9.82
2022-11-23T15:23:17.742Z,13.15
2022-11-23T15:28:27.542Z,12.43
2022-11-23T15:33:29.804Z,14.82
2022-11-23T15:38:32.308Z,18.15
2022-11-23T15:43:34.502Z,28.05
2022-11-23T15:48:38.125Z,59.78
2022-11-23T15:53:49.881Z,34.60
2022-11-23T15:58:53.403Z,45.83
2022-11-23T16:04:12.714Z,37.35
2022-11-23T16:09:53.955Z,59.53
2022-11-23T16:14:59.389Z,67.13
2022-11-23T16:20:05.225Z,48.70
2022-11-23T16:25:09.244Z,43.08
2022-11-23T16:30:35.165Z,75.28
2022-11-23T16:35:37.502Z,32.17
2022-11-23T16:40:40.715Z,80.68
2022-11-23T16:45:45.110Z,51.35
2022-11-23T16:50:47.457Z,82.85
2022-11-23T16:55:57.254Z,74.30
2022-11-23T17:06:24.515Z,30.85
2022-11-23T17:11:27.108Z,28.45
2022-11-23T17:16:31.147Z,82.85
2022-11-23T17:21:33.387Z,26.90
2022-11-23T17:26:38.963Z,54.85
2022-11-23T17:31:43.716Z,46.50
2022-11-23T17:36:47.887Z,32.88
2022-11-23T17:41:50.284Z,35.83
2022-11-23T17:47:00.895Z,42.70
2022-11-23T17:52:03.456Z,19.27
2022-11-23T17:57:05.655Z,23.98
2022-11-23T18:02:08.979Z,26.60
2022-11-23T18:07:14.337Z,29.13
2022-11-23T18:12:17.600Z,28.48
2022-11-23T18:17:22.488Z,21.90
2022-11-23T18:22:24.610Z,30.88
2022-11-23T18:27:27.385Z,31.58
2022-11-23T18:32:29.413Z,20.30
2022-11-23T18:37:31.607Z,20.08
2022-11-23T18:42:33.888Z,24.27
2022-11-23T18:47:35.991Z,26.58
2022-11-23T18:52:38.305Z,55.40
2022-11-23T18:57:40.548Z,35.50
2022-11-23T19:02:42.910Z,31.88
2022-11-23T19:07:45.073Z,31.58
2022-11-23T19:12:47.267Z,24.17
2022-11-23T19:17:49.666Z,31.02
2022-11-23T19:22:52.305Z,42.92
2022-11-23T19:27:54.668Z,28.17
2022-11-23T19:32:58.533Z,35.28
2022-11-23T19:38:00.873Z,25.88
2022-11-23T19:43:03.150Z,25.05
2022-11-23T19:48:05.476Z,23.10
2022-11-23T19:53:12.878Z,19.20
2022-11-23T19:58:18.677Z,25.85
2022-11-23T20:03:20.951Z,36.17
2022-11-23T20:08:23.251Z,23.60
2022-11-23T20:13:25.562Z,24.23
2022-11-23T20:18:29.817Z,21.25
2022-11-23T20:23:41.442Z,19.90
2022-11-23T20:28:43.913Z,20.30
2022-11-23T20:33:46.522Z,20.00
2022-11-23T20:38:49.367Z,18.73
2022-11-23T20:43:55.099Z,17.45
2022-11-23T20:49:00.155Z,17.20
2022-11-23T20:54:02.613Z,15.52
2022-11-23T20:59:05.210Z,16.17
2022-11-23T21:04:08.552Z,26.10
2022-11-23T21:09:11.493Z,18.63
2022-11-23T21:14:21.836Z,14.98
2022-11-23T21:19:32.820Z,14.33
2022-11-23T21:24:35.867Z,15.40
2022-11-23T21:29:38.759Z,14.63
2022-11-23T21:34:40.844Z,13.13
2022-11-23T21:39:46.599Z,12.55
2022-11-23T21:44:51.840Z,12.77
2022-11-23T21:49:54.058Z,11.00
2022-11-23T21:54:56.157Z,12.52
2022-11-23T21:59:58.302Z,13.90
2022-11-23T22:05:00.324Z,14.10
2022-11-23T22:10:02.643Z,13.05
2022-11-23T22:15:05.261Z,15.30
2022-11-23T22:20:08.556Z,10.27
2022-11-23T22:25:11.251Z,9.45
2022-11-23T22:30:13.783Z,8.73
2022-11-23T22:35:16.202Z,11.98
2022-11-23T22:40:18.579Z,12.75
2022-11-23T22:45:20.688Z,11.43
2022-11-23T22:50:22.755Z,9.52
2022-11-23T22:55:25.153Z,11.38
2022-11-23T23:00:27.286Z,9.50
2022-11-23T23:05:29.370Z,7.97
2022-11-23T23:10:31.600Z,8.45
2022-11-23T23:15:33.958Z,7.90
2022-11-23T23:20:36.596Z,8.25
2022-11-23T23:25:38.975Z,8.40
2022-11-23T23:30:41.069Z,8.02
2022-11-23T23:35:51.337Z,7.47
2022-11-23T23:40:56.432Z,6.37
2022-11-23T23:46:00.379Z,7.85
2022-11-23T23:51:07.349Z,6.97
2022-11-23T23:56:14.817Z,7.18
